createdAt,value
2022-11-05T00:00:59.469Z,91.89
2022-11-05T00:05:19.695Z,91.75
2022-11-05T00:09:30.331Z,91.18
2022-11-05T00:13:50.432Z,91.62
2022-11-05T00:17:52.084Z,91.48
2022-11-05T00:22:12.431Z,91.17
2022-11-05T00:26:14.461Z,91.50
2022-11-05T00:30:19.560Z,91.20
2022-11-05T00:34:21.525Z,91.43
2022-11-05T00:38:23.300Z,90.94
2022-11-05T00:42:43.570Z,90.92
2022-11-05T00:46:45.257Z,91.20
2022-11-05T00:50:46.978Z,91.43
2022-11-05T00:54:48.676Z,91.17
2022-11-05T00:58:50.373Z,91.20
2022-11-05T01:02:52.539Z,91.63
2022-11-05T01:06:55.216Z,91.25
2022-11-05T01:10:58.568Z,90.83
2022-11-05T01:15:00.680Z,91.14
2022-11-05T01:19:04.607Z,90.73
2022-11-05T01:23:12.100Z,90.40
2022-11-05T01:27:15.312Z,90.33
2022-11-05T01:31:16.936Z,90.68
2022-11-05T01:35:18.944Z,91.42
2022-11-05T01:39:20.598Z,91.68
2022-11-05T01:43:23.505Z,91.90
2022-11-05T01:47:47.837Z,92.23
2022-11-05T01:51:51.376Z,92.91
2022-11-05T01:55:56.096Z,92.74
2022-11-05T01:59:59.932Z,93.33
2022-11-05T02:04:08.981Z,93.33
2022-11-05T02:08:18.949Z,93.24
2022-11-05T02:12:21.877Z,93.61
2022-11-05T02:16:28.929Z,93.39
2022-11-05T02:20:52.216Z,93.55
2022-11-05T02:25:03.355Z,93.45
2022-11-05T02:29:54.499Z,93.90
2022-11-05T02:34:11.644Z,93.47
2022-11-05T02:38:18.939Z,92.86
2022-11-05T02:42:42.562Z,92.38
2022-11-05T02:46:52.942Z,92.31
2022-11-05T02:51:03.041Z,92.12
2022-11-05T02:55:38.663Z,92.12
2022-11-05T02:59:40.309Z,92.13
2022-11-05T03:03:52.973Z,91.63
2022-11-05T03:08:06.860Z,92.19
2022-11-05T03:12:14.582Z,91.89
2022-11-05T03:16:22.708Z,91.69
2022-11-05T03:20:41.463Z,91.78
2022-11-05T03:24:46.575Z,92.34
2022-11-05T03:28:54.703Z,91.86
2022-11-05T03:33:03.691Z,91.80
2022-11-05T03:37:06.789Z,91.48
2022-11-05T03:41:14.171Z,91.57
2022-11-05T03:45:21.361Z,91.42
2022-11-05T03:49:28.789Z,91.54
2022-11-05T03:53:36.825Z,92.04
2022-11-05T03:57:44.240Z,91.46
2022-11-05T04:01:46.047Z,92.21
2022-11-05T04:06:07.998Z,92.00
2022-11-05T04:10:33.217Z,92.67
2022-11-05T04:14:34.924Z,92.72
2022-11-05T04:18:36.953Z,92.88
2022-11-05T04:22:56.876Z,92.70
2022-11-05T04:26:59.301Z,93.05
2022-11-05T04:31:00.957Z,93.46
2022-11-05T04:35:02.691Z,93.60
2022-11-05T04:39:04.366Z,93.74
2022-11-05T04:43:13.616Z,93.51
2022-11-05T04:47:16.650Z,93.23
2022-11-05T04:51:18.329Z,93.22
2022-11-05T04:55:20.031Z,93.02
2022-11-05T04:59:21.712Z,93.25
2022-11-05T05:03:23.824Z,93.15
2022-11-05T05:07:26.021Z,92.86
2022-11-05T05:11:27.634Z,92.68
2022-11-05T05:15:29.362Z,92.60
2022-11-05T05:19:51.001Z,92.26
2022-11-05T05:23:52.690Z,92.07
2022-11-05T05:27:57.552Z,92.27
2022-11-05T05:31:59.288Z,92.26
2022-11-05T12:29:12.156Z,81.68
2022-11-05T12:33:05.442Z,84.05
2022-11-05T12:37:45.048Z,84.05
2022-11-05T12:41:53.905Z,85.56
2022-11-05T12:46:01.576Z,85.74
2022-11-05T12:50:28.622Z,85.84
2022-11-05T12:54:33.288Z,86.09
2022-11-05T12:58:39.663Z,85.56
2022-11-05T13:03:05.151Z,84.99
2022-11-05T13:07:11.797Z,85.27
2022-11-05T13:11:26.416Z,85.31
2022-11-05T13:15:34.444Z,84.98
2022-11-05T13:19:41.898Z,84.83
2022-11-05T13:24:01.626Z,84.86
2022-11-05T13:28:33.013Z,84.42
2022-11-05T13:32:39.393Z,84.50
2022-11-05T13:37:21.125Z,84.26
2022-11-05T13:41:46.797Z,84.06
2022-11-05T13:46:06.551Z,83.76
2022-11-05T13:50:26.680Z,84.01
2022-11-05T13:54:52.689Z,84.15
2022-11-05T13:59:10.349Z,84.31
2022-11-05T14:03:20.624Z,84.35
2022-11-05T14:07:29.295Z,84.43
2022-11-05T14:11:37.471Z,84.34
2022-11-05T14:15:39.213Z,84.87
2022-11-05T14:20:02.793Z,84.37
2022-11-05T14:24:22.881Z,84.36
2022-11-05T14:28:36.581Z,83.85
2022-11-05T14:32:45.780Z,84.40
2022-11-05T14:37:12.661Z,84.24
2022-11-05T14:41:14.640Z,84.49
2022-11-05T14:45:32.770Z,84.66
2022-11-05T14:49:53.220Z,84.14
2022-11-05T14:54:00.435Z,84.55
2022-11-05T14:58:05.954Z,84.87
2022-11-05T15:02:15.756Z,85.03
2022-11-05T15:06:35.467Z,85.19
2022-11-05T15:10:37.712Z,85.38
2022-11-05T15:14:58.928Z,85.48
2022-11-05T15:19:01.391Z,85.72
2022-11-05T15:23:05.378Z,85.82
2022-11-05T15:27:15.829Z,86.12
2022-11-05T15:31:37.701Z,86.14
2022-11-05T15:35:41.508Z,85.92
2022-11-05T15:39:45.727Z,85.96
2022-11-05T15:43:49.409Z,85.95
2022-11-05T15:47:51.148Z,86.06
2022-11-05T15:51:52.876Z,86.46
2022-11-05T15:55:59.086Z,86.74
2022-11-05T16:00:08.395Z,86.66
2022-11-05T16:04:23.690Z,86.94
2022-11-05T16:08:28.168Z,87.33
2022-11-05T16:12:32.657Z,87.44
2022-11-05T16:16:34.503Z,87.83
2022-11-05T16:20:38.457Z,87.53
2022-11-05T16:24:42.814Z,88.35
2022-11-05T16:28:50.501Z,88.72
2022-11-05T16:32:52.567Z,88.55
2022-11-05T16:36:56.715Z,88.80
2022-11-05T16:41:00.379Z,89.02
2022-11-05T16:45:02.064Z,89.53
2022-11-05T16:49:04.260Z,89.63
2022-11-05T16:53:06.073Z,89.57
2022-11-05T16:57:23.520Z,89.39
2022-11-05T17:01:25.442Z,89.86
2022-11-05T17:05:29.804Z,89.35
2022-11-05T17:09:32.007Z,89.92
2022-11-05T17:13:34.114Z,89.64
2022-11-05T17:17:35.773Z,89.98
2022-11-05T17:21:37.449Z,89.97
2022-11-05T17:25:40.843Z,90.27
2022-11-05T17:29:42.519Z,90.57
2022-11-05T17:33:44.244Z,90.54
2022-11-05T17:37:46.183Z,90.89
2022-11-05T17:41:48.036Z,90.65
2022-11-05T17:45:52.080Z,90.92
2022-11-05T17:49:53.809Z,91.22
2022-11-05T17:53:55.841Z,91.41
2022-11-05T17:57:57.675Z,91.42
2022-11-05T18:01:59.585Z,91.45
2022-11-05T18:06:06.407Z,91.36
2022-11-05T18:10:08.499Z,91.07
2022-11-05T18:14:10.775Z,91.57
2022-11-05T18:18:12.716Z,91.43
2022-11-05T18:22:16.372Z,91.34
2022-11-05T18:26:18.436Z,91.43
2022-11-05T18:30:20.191Z,91.55
2022-11-05T18:34:21.846Z,91.55
2022-11-05T18:38:23.562Z,91.29
2022-11-05T18:42:25.515Z,91.49
2022-11-05T18:46:56.475Z,91.18
2022-11-05T18:50:50.893Z,91.44
2022-11-05T18:54:52.609Z,91.43
2022-11-05T18:59:14.822Z,91.34
2022-11-05T19:03:16.291Z,90.74
2022-11-05T19:07:19.266Z,90.90
2022-11-05T19:11:23.164Z,90.48
2022-11-05T19:15:24.821Z,90.63
2022-11-05T19:19:27.422Z,90.52
2022-11-05T19:23:29.104Z,90.76
2022-11-05T19:27:30.801Z,90.40
2022-11-05T19:31:32.550Z,90.16
2022-11-05T19:35:39.998Z,90.32
2022-11-05T19:39:43.348Z,89.98
2022-11-05T19:43:45.728Z,89.83
2022-11-05T19:47:47.492Z,89.91
2022-11-05T19:51:49.193Z,89.59
2022-11-05T19:55:50.835Z,89.66
2022-11-05T19:59:52.495Z,89.45
2022-11-05T20:03:56.252Z,89.47
2022-11-05T20:07:57.988Z,89.39
2022-11-05T20:11:59.863Z,89.61
2022-11-05T20:16:01.767Z,89.75
2022-11-05T20:20:04.290Z,89.69
2022-11-05T20:24:06.333Z,89.53
2022-11-05T20:28:08.153Z,89.50
2022-11-05T20:32:12.553Z,89.90
2022-11-05T20:36:16.762Z,89.43
2022-11-05T20:40:18.508Z,89.51
2022-11-05T20:44:20.244Z,89.85
2022-11-05T20:48:21.960Z,90.10
2022-11-05T20:52:23.635Z,89.80
2022-11-05T20:56:28.042Z,89.85
2022-11-05T21:00:29.785Z,89.95
2022-11-05T21:04:31.585Z,90.09
2022-11-05T21:08:34.043Z,89.60
2022-11-05T21:12:35.790Z,90.05
2022-11-05T21:16:37.468Z,89.62
2022-11-05T21:20:40.123Z,89.62
2022-11-05T21:24:42.672Z,90.10
2022-11-05T21:28:44.413Z,89.88
2022-11-05T21:32:46.034Z,89.76
2022-11-05T21:36:47.736Z,89.69
2022-11-05T21:40:49.820Z,90.00
2022-11-05T21:44:53.986Z,89.58
2022-11-05T21:48:59.507Z,89.89
2022-11-05T21:53:19.804Z,90.06
2022-11-05T21:57:40.218Z,89.97
2022-11-05T22:01:41.959Z,89.56
2022-11-05T22:05:43.778Z,89.55
2022-11-05T22:09:45.826Z,89.44
2022-11-05T22:13:47.483Z,89.85
2022-11-05T22:17:52.302Z,89.62
2022-11-05T22:21:54.027Z,89.83
2022-11-05T22:26:02.856Z,89.35
2022-11-05T22:30:05.203Z,89.57
2022-11-05T22:34:07.668Z,89.62
2022-11-05T22:38:09.540Z,89.69
2022-11-05T22:42:11.481Z,89.52
2022-11-05T22:46:22.384Z,89.77
2022-11-05T22:50:24.265Z,90.07
2022-11-05T22:54:26.074Z,90.06
2022-11-05T22:58:27.773Z,90.07
2022-11-05T23:02:29.533Z,90.38
2022-11-05T23:06:51.862Z,90.07
2022-11-05T23:11:12.184Z,90.21
2022-11-05T23:15:33.870Z,90.28
2022-11-05T23:19:54.214Z,90.54
2022-11-05T23:24:04.908Z,90.67
2022-11-05T23:28:10.066Z,90.66
2022-11-05T23:32:24.039Z,90.50
2022-11-05T23:36:44.302Z,90.33
2022-11-05T23:41:04.665Z,91.01
2022-11-05T23:45:25.466Z,90.87
2022-11-05T23:49:27.342Z,90.90
2022-11-05T23:53:31.268Z,90.93
2022-11-05T23:57:43.248Z,91.06
